createdAt,value
2022-08-17T00:03:14.656Z,90.50
2022-08-17T00:08:20.611Z,90.26
2022-08-17T00:13:33.524Z,91.82
2022-08-17T00:19:06.744Z,92.80
2022-08-17T00:23:57.806Z,92.61
2022-08-17T00:29:00.098Z,92.72
2022-08-17T00:34:03.257Z,92.32
2022-08-17T00:39:05.346Z,95.99
2022-08-17T00:44:08.226Z,97.74
2022-08-17T00:49:11.866Z,96.90
2022-08-17T00:54:23.024Z,96.15
2022-08-17T00:59:30.560Z,95.16
2022-08-17T01:04:33.164Z,94.75
2022-08-17T01:09:35.300Z,95.05
2022-08-17T01:14:38.847Z,94.51
2022-08-17T01:19:41.776Z,95.07
2022-08-17T01:24:59.373Z,95.01
2022-08-17T01:30:06.686Z,95.33
2022-08-17T01:35:29.546Z,95.81
2022-08-17T01:40:38.654Z,96.39
2022-08-17T01:45:45.309Z,96.48
2022-08-17T01:50:49.605Z,96.27
2022-08-17T01:55:54.814Z,96.39
2022-08-17T02:01:01.043Z,96.68
2022-08-17T02:06:05.782Z,96.74
2022-08-17T02:11:28.135Z,96.34
2022-08-17T02:16:37.889Z,96.62
2022-08-17T02:21:42.084Z,97.51
2022-08-17T02:26:46.404Z,98.69
2022-08-17T02:31:48.405Z,98.67
2022-08-17T02:36:52.576Z,98.95
2022-08-17T02:42:02.391Z,98.25
2022-08-17T02:47:04.616Z,98.27
2022-08-17T02:52:07.410Z,98.55
2022-08-17T02:57:10.596Z,99.00
2022-08-17T03:02:12.495Z,98.76
2022-08-17T03:07:15.603Z,98.65
2022-08-17T03:12:17.550Z,99.09
2022-08-17T03:17:19.420Z,99.31
2022-08-17T03:22:36.600Z,99.36
2022-08-17T03:27:41.991Z,99.21
2022-08-17T03:32:47.348Z,99.22
2022-08-17T03:38:00.383Z,100.00
2022-08-17T03:43:08.565Z,100.00
2022-08-17T03:48:29.139Z,99.98
2022-08-17T03:53:49.709Z,100.00
2022-08-17T03:58:51.529Z,100.00
2022-08-17T04:03:53.445Z,100.00
2022-08-17T04:08:55.711Z,100.00
2022-08-17T04:13:57.514Z,100.00
2022-08-17T04:18:59.711Z,100.00
2022-08-17T04:24:02.235Z,99.56
2022-08-17T04:29:04.849Z,98.34
2022-08-17T04:34:06.816Z,97.71
2022-08-17T04:39:08.638Z,97.00
2022-08-17T04:44:11.843Z,95.44
2022-08-17T04:49:13.778Z,93.10
2022-08-17T04:54:20.124Z,94.45
2022-08-17T04:59:22.380Z,95.56
2022-08-17T05:04:33.950Z,95.80
2022-08-17T05:09:40.758Z,95.52
2022-08-17T05:14:42.810Z,95.47
2022-08-17T05:19:51.757Z,93.94
2022-08-17T05:25:07.702Z,95.04
2022-08-17T05:30:25.334Z,95.45
2022-08-17T05:35:43.673Z,95.60
2022-08-17T05:40:56.463Z,96.26
2022-08-17T05:46:22.450Z,95.95
2022-08-17T05:51:38.807Z,94.66
2022-08-17T05:57:03.822Z,94.72
2022-08-17T06:02:26.770Z,94.36
2022-08-17T06:07:44.869Z,93.29
2022-08-17T06:13:05.503Z,92.74
2022-08-17T06:18:09.795Z,92.00
2022-08-17T06:23:17.745Z,91.81
2022-08-17T06:28:34.062Z,91.88
2022-08-17T06:33:37.759Z,90.86
2022-08-17T06:38:53.199Z,90.35
2022-08-17T06:44:02.185Z,89.92
2022-08-17T06:49:25.535Z,89.27
2022-08-17T06:54:38.283Z,87.30
2022-08-17T06:59:55.362Z,86.51
2022-08-17T07:05:01.431Z,85.68
2022-08-17T07:10:03.811Z,86.16
2022-08-17T07:15:13.285Z,84.23
2022-08-17T07:20:20.218Z,83.55
2022-08-17T07:25:22.665Z,84.08
2022-08-17T07:30:26.227Z,82.73
2022-08-17T07:35:44.269Z,81.02
2022-08-17T07:41:06.031Z,81.01
2022-08-17T07:46:29.632Z,79.30
2022-08-17T07:51:35.285Z,79.30
2022-08-17T07:56:47.773Z,78.46
2022-08-17T08:02:03.682Z,76.83
2022-08-17T08:07:29.967Z,74.20
2022-08-17T08:12:46.487Z,75.52
2022-08-17T08:17:53.996Z,74.98
2022-08-17T08:23:10.287Z,75.03
2022-08-17T08:28:27.054Z,74.16
2022-08-17T08:33:49.299Z,72.24
2022-08-17T08:39:03.666Z,71.57
2022-08-17T08:44:21.766Z,70.50
2022-08-17T08:50:06.948Z,69.81
2022-08-17T08:55:36.373Z,70.08
2022-08-17T09:00:43.780Z,68.54
2022-08-17T09:05:48.818Z,67.67
2022-08-17T09:11:05.254Z,67.08
2022-08-17T09:16:29.297Z,65.93
2022-08-17T09:21:52.342Z,65.42
2022-08-17T09:27:06.276Z,64.04
2022-08-17T09:32:37.856Z,63.49
2022-08-17T09:38:13.281Z,62.69
2022-08-17T09:43:46.602Z,62.01
2022-08-17T09:49:14.632Z,61.79
2022-08-17T09:54:45.592Z,60.17
2022-08-17T10:00:08.018Z,58.96
2022-08-17T10:05:32.510Z,58.66
2022-08-17T10:10:56.683Z,57.95
2022-08-17T10:16:24.008Z,57.21
2022-08-17T10:21:45.534Z,56.17
2022-08-17T10:26:56.364Z,55.72
2022-08-17T10:32:04.613Z,54.76
2022-08-17T10:37:21.979Z,54.50
2022-08-17T10:42:37.397Z,53.08
2022-08-17T10:48:06.046Z,53.06
2022-08-17T10:53:28.188Z,53.20
2022-08-17T10:58:56.400Z,52.30
2022-08-17T11:04:19.375Z,51.35
2022-08-17T11:09:59.655Z,50.92
2022-08-17T11:15:01.796Z,49.87
2022-08-17T11:20:11.110Z,48.83
2022-08-17T11:25:22.264Z,49.06
2022-08-17T11:31:08.859Z,47.38
2022-08-17T11:36:33.908Z,47.09
2022-08-17T11:41:48.462Z,46.13
2022-08-17T11:47:37.409Z,45.46
2022-08-17T11:52:41.011Z,46.07
2022-08-17T11:57:59.533Z,45.37
2022-08-17T12:03:22.544Z,43.36
2022-08-17T12:08:27.489Z,42.53
2022-08-17T12:13:38.565Z,43.33
2022-08-17T12:18:49.691Z,42.98
2022-08-17T12:24:14.227Z,42.38
2022-08-17T12:29:35.981Z,42.47
2022-08-17T12:34:42.294Z,42.03
2022-08-17T12:39:57.157Z,41.03
2022-08-17T12:44:59.185Z,39.80
2022-08-17T12:50:29.596Z,39.98
2022-08-17T12:55:37.355Z,39.48
2022-08-17T13:00:40.939Z,39.42
2022-08-17T13:06:07.552Z,39.85
2022-08-17T13:11:23.822Z,39.13
2022-08-17T13:16:30.042Z,40.04
2022-08-17T13:21:33.635Z,39.86
2022-08-17T13:26:56.886Z,39.81
2022-08-17T13:32:13.200Z,39.84
2022-08-17T13:37:28.575Z,40.08
2022-08-17T13:42:50.374Z,39.60
2022-08-17T13:48:19.967Z,39.21
2022-08-17T13:53:44.786Z,39.46
2022-08-17T13:59:52.577Z,39.23
2022-08-17T14:04:46.445Z,38.25
2022-08-17T14:09:51.575Z,38.77
2022-08-17T14:14:55.878Z,38.32
2022-08-17T14:19:58.726Z,39.09
2022-08-17T14:25:03.926Z,38.66
2022-08-17T14:30:07.707Z,38.15
2022-08-17T14:35:12.297Z,38.46
2022-08-17T14:40:16.116Z,38.12
2022-08-17T14:45:29.607Z,38.47
2022-08-17T14:50:43.038Z,38.08
2022-08-17T14:55:45.585Z,37.88
2022-08-17T15:00:53.447Z,37.35
2022-08-17T15:05:55.791Z,37.91
2022-08-17T15:10:58.267Z,38.11
2022-08-17T15:16:00.345Z,37.54
2022-08-17T15:21:04.610Z,37.96
2022-08-17T15:26:07.244Z,38.01
2022-08-17T15:31:09.356Z,37.91
2022-08-17T15:36:11.388Z,37.96
2022-08-17T15:41:17.856Z,37.57
2022-08-17T15:46:22.943Z,38.20
2022-08-17T15:51:39.541Z,38.04
2022-08-17T15:56:41.600Z,38.35
2022-08-17T16:02:29.903Z,38.31
2022-08-17T16:07:06.750Z,38.23
2022-08-17T16:12:34.095Z,38.09
2022-08-17T16:17:40.310Z,38.14
2022-08-17T16:22:45.464Z,38.14
2022-08-17T16:27:50.038Z,37.95
2022-08-17T16:33:00.706Z,38.57
2022-08-17T16:38:10.079Z,41.07
2022-08-17T16:43:14.255Z,41.51
2022-08-17T16:48:16.693Z,40.86
2022-08-17T16:53:18.949Z,41.17
2022-08-17T16:58:21.275Z,43.65
2022-08-17T17:03:26.117Z,43.38
2022-08-17T17:08:38.449Z,42.96
2022-08-17T17:13:54.546Z,42.94
2022-08-17T17:19:11.527Z,43.22
2022-08-17T17:24:18.505Z,44.05
2022-08-17T17:29:47.906Z,44.46
2022-08-17T17:34:55.721Z,45.90
2022-08-17T17:40:09.054Z,46.21
2022-08-17T17:45:31.871Z,47.34
2022-08-17T17:51:03.270Z,48.01
2022-08-17T17:56:44.182Z,49.77
2022-08-17T18:02:02.562Z,50.61
2022-08-17T18:07:23.060Z,51.74
2022-08-17T18:12:35.366Z,53.45
2022-08-17T18:18:30.760Z,54.39
2022-08-17T18:23:39.632Z,54.55
2022-08-17T18:28:53.919Z,54.78
2022-08-17T18:34:43.865Z,55.16
2022-08-17T18:39:46.981Z,55.67
2022-08-17T18:44:54.341Z,55.81
2022-08-17T18:50:20.503Z,56.75
2022-08-17T18:55:30.473Z,57.91
2022-08-17T19:00:45.353Z,58.29
2022-08-17T19:06:24.542Z,58.24
2022-08-17T19:11:32.742Z,58.65
2022-08-17T19:16:35.159Z,59.26
2022-08-17T19:21:47.536Z,60.16
2022-08-17T19:27:34.933Z,60.95
2022-08-17T19:32:44.978Z,62.18
2022-08-17T19:38:13.291Z,62.60
2022-08-17T19:43:30.710Z,63.55
2022-08-17T19:48:48.122Z,64.09
2022-08-17T19:54:15.693Z,64.70
2022-08-17T19:59:46.175Z,64.83
2022-08-17T20:04:52.807Z,64.94
2022-08-17T20:10:18.229Z,65.64
2022-08-17T20:15:29.685Z,66.39
2022-08-17T20:20:47.224Z,67.60
2022-08-17T20:26:04.767Z,68.10
2022-08-17T20:31:42.483Z,68.43
2022-08-17T20:37:22.778Z,69.09
2022-08-17T20:42:27.517Z,70.02
2022-08-17T20:47:55.176Z,70.18
2022-08-17T20:53:05.005Z,70.62
2022-08-17T20:58:17.276Z,70.87
2022-08-17T21:03:22.494Z,70.75
2022-08-17T21:08:30.968Z,70.45
2022-08-17T21:13:46.381Z,70.67
2022-08-17T21:19:49.003Z,71.13
2022-08-17T21:25:13.432Z,71.25
2022-08-17T21:30:26.613Z,71.40
2022-08-17T21:35:58.645Z,71.32
2022-08-17T21:41:01.485Z,71.53
2022-08-17T21:46:23.393Z,71.64
2022-08-17T21:51:29.517Z,72.06
2022-08-17T21:56:37.702Z,72.06
2022-08-17T22:01:51.356Z,72.14
2022-08-17T22:06:59.137Z,72.24
2022-08-17T22:12:14.495Z,72.86
2022-08-17T22:17:19.032Z,73.08
2022-08-17T22:22:26.026Z,73.49
2022-08-17T22:27:53.984Z,73.38
2022-08-17T22:33:01.259Z,73.62
2022-08-17T22:38:18.538Z,73.47
2022-08-17T22:43:25.892Z,73.58
2022-08-17T22:48:29.164Z,74.12
2022-08-17T22:53:49.749Z,74.46
2022-08-17T22:59:16.595Z,74.90
2022-08-17T23:04:37.799Z,75.34
2022-08-17T23:09:40.205Z,76.05
2022-08-17T23:14:46.209Z,76.41
2022-08-17T23:19:48.140Z,76.90
2022-08-17T23:24:50.084Z,77.45
2022-08-17T23:29:52.196Z,78.34
2022-08-17T23:34:55.010Z,79.64
2022-08-17T23:39:57.054Z,79.22
2022-08-17T23:44:59.071Z,78.83
2022-08-17T23:50:05.100Z,79.16
2022-08-17T23:55:08.097Z,79.34
